sensor_id;sensor_type;location;lat;lon;timestamp;temperature;humidity
55648;DHT22;45266;48.756;9.246;2023-02-28T00:00:28;-1.00;73.50
55648;DHT22;45266;48.756;9.246;2023-02-28T00:01:30;-1.00;74.80
55648;DHT22;45266;48.756;9.246;2023-02-28T00:02:33;-1.00;75.00
55648;DHT22;45266;48.756;9.246;2023-02-28T00:03:35;-1.10;75.20
55648;DHT22;45266;48.756;9.246;2023-02-28T00:04:37;-1.10;74.80
55648;DHT22;45266;48.756;9.246;2023-02-28T00:05:39;-1.10;76.30
55648;DHT22;45266;48.756;9.246;2023-02-28T00:06:40;-1.10;77.60
55648;DHT22;45266;48.756;9.246;2023-02-28T00:07:43;-1.20;75.80
55648;DHT22;45266;48.756;9.246;2023-02-28T00:08:45;-1.20;77.20
55648;DHT22;45266;48.756;9.246;2023-02-28T00:09:47;-1.20;77.00
55648;DHT22;45266;48.756;9.246;2023-02-28T00:10:49;-1.20;76.50
55648;DHT22;45266;48.756;9.246;2023-02-28T00:11:50;-1.20;77.60
55648;DHT22;45266;48.756;9.246;2023-02-28T00:12:54;-1.20;77.40
55648;DHT22;45266;48.756;9.246;2023-02-28T00:13:58;-1.30;78.60
55648;DHT22;45266;48.756;9.246;2023-02-28T00:15:01;-1.30;77.90
55648;DHT22;45266;48.756;9.246;2023-02-28T00:16:06;-1.30;77.10
55648;DHT22;45266;48.756;9.246;2023-02-28T00:17:08;-1.30;79.10
55648;DHT22;45266;48.756;9.246;2023-02-28T00:18:10;-1.30;79.40
55648;DHT22;45266;48.756;9.246;2023-02-28T00:19:13;-1.30;79.00
55648;DHT22;45266;48.756;9.246;2023-02-28T00:20:15;-1.30;80.70
55648;DHT22;45266;48.756;9.246;2023-02-28T00:21:18;-1.40;80.10
55648;DHT22;45266;48.756;9.246;2023-02-28T00:22:20;-1.40;81.60
55648;DHT22;45266;48.756;9.246;2023-02-28T00:23:22;-1.40;83.50
55648;DHT22;45266;48.756;9.246;2023-02-28T00:24:24;-1.50;85.00
55648;DHT22;45266;48.756;9.246;2023-02-28T00:25:26;-1.50;83.50
55648;DHT22;45266;48.756;9.246;2023-02-28T00:26:28;-1.50;83.60
55648;DHT22;45266;48.756;9.246;2023-02-28T00:27:30;-1.60;86.50
55648;DHT22;45266;48.756;9.246;2023-02-28T00:28:32;-1.60;87.20
55648;DHT22;45266;48.756;9.246;2023-02-28T00:29:33;-1.70;86.70
55648;DHT22;45266;48.756;9.246;2023-02-28T00:30:35;-1.70;88.30
55648;DHT22;45266;48.756;9.246;2023-02-28T00:31:37;-1.70;88.00
55648;DHT22;45266;48.756;9.246;2023-02-28T00:32:40;-1.80;89.70
55648;DHT22;45266;48.756;9.246;2023-02-28T00:33:41;-1.80;91.20
55648;DHT22;45266;48.756;9.246;2023-02-28T00:34:43;-1.80;90.20
55648;DHT22;45266;48.756;9.246;2023-02-28T00:35:45;-1.80;87.00
55648;DHT22;45266;48.756;9.246;2023-02-28T00:36:48;-1.90;90.20
55648;DHT22;45266;48.756;9.246;2023-02-28T00:37:52;-1.90;88.60
55648;DHT22;45266;48.756;9.246;2023-02-28T00:38:54;-1.90;90.10
55648;DHT22;45266;48.756;9.246;2023-02-28T00:39:56;-1.90;90.00
55648;DHT22;45266;48.756;9.246;2023-02-28T00:40:58;-2.00;91.60
55648;DHT22;45266;48.756;9.246;2023-02-28T00:42:06;-2.00;92.30
55648;DHT22;45266;48.756;9.246;2023-02-28T00:43:08;-2.00;93.30
55648;DHT22;45266;48.756;9.246;2023-02-28T00:44:11;-2.00;94.50
55648;DHT22;45266;48.756;9.246;2023-02-28T00:45:12;-1.90;95.40
55648;DHT22;45266;48.756;9.246;2023-02-28T00:46:14;-2.00;95.30
55648;DHT22;45266;48.756;9.246;2023-02-28T00:47:16;-1.90;94.70
55648;DHT22;45266;48.756;9.246;2023-02-28T00:48:18;-2.00;92.50
55648;DHT22;45266;48.756;9.246;2023-02-28T00:49:20;-1.90;94.30
55648;DHT22;45266;48.756;9.246;2023-02-28T00:50:22;-2.00;92.50
55648;DHT22;45266;48.756;9.246;2023-02-28T00:51:24;-2.00;93.80
55648;DHT22;45266;48.756;9.246;2023-02-28T00:52:26;-2.00;96.30
55648;DHT22;45266;48.756;9.246;2023-02-28T00:53:28;-2.00;96.40
55648;DHT22;45266;48.756;9.246;2023-02-28T00:54:30;-2.10;96.70
55648;DHT22;45266;48.756;9.246;2023-02-28T00:55:32;-2.10;98.60
55648;DHT22;45266;48.756;9.246;2023-02-28T00:56:34;-2.20;99.90
55648;DHT22;45266;48.756;9.246;2023-02-28T00:57:35;-2.20;99.90
55648;DHT22;45266;48.756;9.246;2023-02-28T00:58:37;-2.20;99.90
55648;DHT22;45266;48.756;9.246;2023-02-28T00:59:39;-2.20;99.90
55648;DHT22;45266;48.756;9.246;2023-02-28T01:00:41;-2.30;99.90
55648;DHT22;45266;48.756;9.246;2023-02-28T01:01:44;-2.30;99.90
55648;DHT22;45266;48.756;9.246;2023-02-28T01:02:46;-2.30;99.90
55648;DHT22;45266;48.756;9.246;2023-02-28T01:03:48;-2.40;99.90
55648;DHT22;45266;48.756;9.246;2023-02-28T01:04:50;-2.40;99.90
55648;DHT22;45266;48.756;9.246;2023-02-28T01:05:52;-2.40;99.90
55648;DHT22;45266;48.756;9.246;2023-02-28T01:06:54;-2.40;99.90
55648;DHT22;45266;48.756;9.246;2023-02-28T01:07:56;-2.40;99.90
55648;DHT22;45266;48.756;9.246;2023-02-28T01:08:58;-2.40;99.90
55648;DHT22;45266;48.756;9.246;2023-02-28T01:10:00;-2.40;99.90
55648;DHT22;45266;48.756;9.246;2023-02-28T01:11:13;-2.50;99.90
55648;DHT22;45266;48.756;9.246;2023-02-28T01:12:16;-2.40;99.90
55648;DHT22;45266;48.756;9.246;2023-02-28T01:13:18;-2.40;99.90
55648;DHT22;45266;48.756;9.246;2023-02-28T01:14:20;-2.40;99.90
55648;DHT22;45266;48.756;9.246;2023-02-28T01:15:22;-2.50;99.90
55648;DHT22;45266;48.756;9.246;2023-02-28T01:16:24;-2.50;99.90
55648;DHT22;45266;48.756;9.246;2023-02-28T01:17:25;-2.50;99.90
55648;DHT22;45266;48.756;9.246;2023-02-28T01:18:28;-2.50;99.90
55648;DHT22;45266;48.756;9.246;2023-02-28T01:19:30;-2.60;99.90
55648;DHT22;45266;48.756;9.246;2023-02-28T01:20:31;-2.60;99.90
55648;DHT22;45266;48.756;9.246;2023-02-28T01:21:33;-2.60;99.90
55648;DHT22;45266;48.756;9.246;2023-02-28T01:22:36;-2.60;99.90
55648;DHT22;45266;48.756;9.246;2023-02-28T01:23:38;-2.70;99.90
55648;DHT22;45266;48.756;9.246;2023-02-28T01:24:40;-2.70;99.90
55648;DHT22;45266;48.756;9.246;2023-02-28T01:25:42;-2.70;99.90
55648;DHT22;45266;48.756;9.246;2023-02-28T01:26:44;-2.70;99.90
55648;DHT22;45266;48.756;9.246;2023-02-28T01:27:46;-2.70;99.90
55648;DHT22;45266;48.756;9.246;2023-02-28T01:28:49;-2.80;99.90
55648;DHT22;45266;48.756;9.246;2023-02-28T01:29:51;-2.80;99.90
55648;DHT22;45266;48.756;9.246;2023-02-28T01:30:53;-2.80;99.90
55648;DHT22;45266;48.756;9.246;2023-02-28T01:31:55;-2.90;99.90
55648;DHT22;45266;48.756;9.246;2023-02-28T01:32:59;-2.90;99.90
55648;DHT22;45266;48.756;9.246;2023-02-28T01:34:01;-2.90;99.90
55648;DHT22;45266;48.756;9.246;2023-02-28T01:35:03;-2.90;99.90
55648;DHT22;45266;48.756;9.246;2023-02-28T01:36:17;-3.00;99.90
55648;DHT22;45266;48.756;9.246;2023-02-28T01:37:19;-3.00;99.90
55648;DHT22;45266;48.756;9.246;2023-02-28T01:38:21;-3.00;99.90
55648;DHT22;45266;48.756;9.246;2023-02-28T01:39:24;-3.00;99.90
55648;DHT22;45266;48.756;9.246;2023-02-28T01:40:26;-3.00;99.90
55648;DHT22;45266;48.756;9.246;2023-02-28T01:41:31;-3.00;99.90
55648;DHT22;45266;48.756;9.246;2023-02-28T01:42:33;-3.00;99.90
55648;DHT22;45266;48.756;9.246;2023-02-28T01:46:22;-3.10;99.90
55648;DHT22;45266;48.756;9.246;2023-02-28T01:47:27;-3.00;99.90
55648;DHT22;45266;48.756;9.246;2023-02-28T01:48:36;-3.00;99.90
55648;DHT22;45266;48.756;9.246;2023-02-28T01:49:38;-3.10;99.90
55648;DHT22;45266;48.756;9.246;2023-02-28T01:50:43;-3.10;99.90
55648;DHT22;45266;48.756;9.246;2023-02-28T01:51:48;-3.10;99.90
55648;DHT22;45266;48.756;9.246;2023-02-28T01:52:57;-3.10;99.90
55648;DHT22;45266;48.756;9.246;2023-02-28T01:54:12;-3.20;99.90
55648;DHT22;45266;48.756;9.246;2023-02-28T01:55:16;-3.20;99.90
55648;DHT22;45266;48.756;9.246;2023-02-28T01:56:26;-3.20;99.90
55648;DHT22;45266;48.756;9.246;2023-02-28T01:57:32;-3.10;99.90
55648;DHT22;45266;48.756;9.246;2023-02-28T01:58:39;-3.20;99.90
55648;DHT22;45266;48.756;9.246;2023-02-28T01:59:46;-3.20;99.90
55648;DHT22;45266;48.756;9.246;2023-02-28T02:00:50;-3.20;99.90
55648;DHT22;45266;48.756;9.246;2023-02-28T02:01:53;-3.20;99.90
55648;DHT22;45266;48.756;9.246;2023-02-28T02:02:58;-3.20;99.90
55648;DHT22;45266;48.756;9.246;2023-02-28T02:04:02;-3.20;99.90
55648;DHT22;45266;48.756;9.246;2023-02-28T02:05:11;-3.20;99.90
55648;DHT22;45266;48.756;9.246;2023-02-28T02:06:13;-3.20;99.90
55648;DHT22;45266;48.756;9.246;2023-02-28T02:07:15;-3.20;99.90
55648;DHT22;45266;48.756;9.246;2023-02-28T02:08:21;-3.30;99.90
55648;DHT22;45266;48.756;9.246;2023-02-28T02:09:25;-3.20;99.90
55648;DHT22;45266;48.756;9.246;2023-02-28T02:11:36;-3.20;99.90
55648;DHT22;45266;48.756;9.246;2023-02-28T02:15:16;-3.20;99.90
55648;DHT22;45266;48.756;9.246;2023-02-28T02:17:45;-3.10;99.90
55648;DHT22;45266;48.756;9.246;2023-02-28T02:28:22;-3.00;99.90
55648;DHT22;45266;48.756;9.246;2023-02-28T02:32:19;-2.90;99.90
55648;DHT22;45266;48.756;9.246;2023-02-28T02:36:53;-2.80;99.90
55648;DHT22;45266;48.756;9.246;2023-02-28T02:39:14;-2.80;99.90
55648;DHT22;45266;48.756;9.246;2023-02-28T02:40:25;-2.80;99.90
55648;DHT22;45266;48.756;9.246;2023-02-28T02:41:48;-2.80;99.90
55648;DHT22;45266;48.756;9.246;2023-02-28T02:42:56;-2.70;99.90
55648;DHT22;45266;48.756;9.246;2023-02-28T02:46:44;-2.60;99.90
55648;DHT22;45266;48.756;9.246;2023-02-28T02:47:46;-2.60;99.90
55648;DHT22;45266;48.756;9.246;2023-02-28T02:48:49;-2.60;99.90
55648;DHT22;45266;48.756;9.246;2023-02-28T02:49:55;-2.60;99.90
55648;DHT22;45266;48.756;9.246;2023-02-28T02:51:01;-2.50;99.90
55648;DHT22;45266;48.756;9.246;2023-02-28T02:52:09;-2.50;99.90
55648;DHT22;45266;48.756;9.246;2023-02-28T02:53:13;-2.50;99.90
55648;DHT22;45266;48.756;9.246;2023-02-28T02:54:24;-2.50;99.90
55648;DHT22;45266;48.756;9.246;2023-02-28T02:55:32;-2.50;99.90
55648;DHT22;45266;48.756;9.246;2023-02-28T02:56:36;-2.50;99.90
55648;DHT22;45266;48.756;9.246;2023-02-28T02:57:51;-2.50;99.90
55648;DHT22;45266;48.756;9.246;2023-02-28T02:58:59;-2.40;99.90
55648;DHT22;45266;48.756;9.246;2023-02-28T03:00:04;-2.40;99.90
55648;DHT22;45266;48.756;9.246;2023-02-28T03:01:07;-2.40;99.90
55648;DHT22;45266;48.756;9.246;2023-02-28T03:02:13;-2.40;99.90
55648;DHT22;45266;48.756;9.246;2023-02-28T03:03:17;-2.30;99.90
55648;DHT22;45266;48.756;9.246;2023-02-28T03:04:24;-2.30;99.90
55648;DHT22;45266;48.756;9.246;2023-02-28T03:05:30;-2.30;99.90
55648;DHT22;45266;48.756;9.246;2023-02-28T03:06:35;-2.30;99.90
55648;DHT22;45266;48.756;9.246;2023-02-28T03:07:37;-2.30;99.90
55648;DHT22;45266;48.756;9.246;2023-02-28T03:08:39;-2.40;99.90
55648;DHT22;45266;48.756;9.246;2023-02-28T03:09:40;-2.30;99.90
55648;DHT22;45266;48.756;9.246;2023-02-28T03:10:49;-2.20;99.90
55648;DHT22;45266;48.756;9.246;2023-02-28T03:11:53;-2.20;99.90
55648;DHT22;45266;48.756;9.246;2023-02-28T03:14:40;-2.10;99.90
55648;DHT22;45266;48.756;9.246;2023-02-28T03:16:05;-2.10;99.90
55648;DHT22;45266;48.756;9.246;2023-02-28T03:18:58;-2.10;99.90
55648;DHT22;45266;48.756;9.246;2023-02-28T03:20:38;-2.10;99.90
55648;DHT22;45266;48.756;9.246;2023-02-28T03:23:11;-2.00;99.90
55648;DHT22;45266;48.756;9.246;2023-02-28T03:26:52;-1.90;99.90
55648;DHT22;45266;48.756;9.246;2023-02-28T03:28:22;-1.90;99.90
55648;DHT22;45266;48.756;9.246;2023-02-28T03:29:34;-1.90;99.90
55648;DHT22;45266;48.756;9.246;2023-02-28T03:31:50;-1.80;99.90
55648;DHT22;45266;48.756;9.246;2023-02-28T03:32:55;-1.80;99.90
55648;DHT22;45266;48.756;9.246;2023-02-28T03:34:29;-1.80;99.90
55648;DHT22;45266;48.756;9.246;2023-02-28T03:35:37;-1.80;99.90
55648;DHT22;45266;48.756;9.246;2023-02-28T03:36:44;-1.80;99.90
55648;DHT22;45266;48.756;9.246;2023-02-28T03:37:48;-1.80;99.90
55648;DHT22;45266;48.756;9.246;2023-02-28T03:38:57;-1.80;99.90
55648;DHT22;45266;48.756;9.246;2023-02-28T03:40:13;-1.80;99.90
55648;DHT22;45266;48.756;9.246;2023-02-28T03:41:19;-1.80;99.90
55648;DHT22;45266;48.756;9.246;2023-02-28T03:42:25;-1.80;99.90
55648;DHT22;45266;48.756;9.246;2023-02-28T03:43:31;-1.70;99.90
55648;DHT22;45266;48.756;9.246;2023-02-28T03:44:43;-1.70;99.90
55648;DHT22;45266;48.756;9.246;2023-02-28T03:45:48;-1.70;99.90
55648;DHT22;45266;48.756;9.246;2023-02-28T03:47:00;-1.70;99.90
55648;DHT22;45266;48.756;9.246;2023-02-28T03:48:20;-1.60;99.90
55648;DHT22;45266;48.756;9.246;2023-02-28T03:49:27;-1.60;99.90
55648;DHT22;45266;48.756;9.246;2023-02-28T03:50:41;-1.60;99.90
55648;DHT22;45266;48.756;9.246;2023-02-28T03:51:46;-1.60;99.90
55648;DHT22;45266;48.756;9.246;2023-02-28T03:53:03;-1.60;99.90
55648;DHT22;45266;48.756;9.246;2023-02-28T03:54:12;-1.60;99.90
55648;DHT22;45266;48.756;9.246;2023-02-28T03:55:16;-1.50;99.90
55648;DHT22;45266;48.756;9.246;2023-02-28T03:56:22;-1.50;99.90
55648;DHT22;45266;48.756;9.246;2023-02-28T03:59:25;-1.50;99.90
55648;DHT22;45266;48.756;9.246;2023-02-28T04:00:35;-1.50;99.90
55648;DHT22;45266;48.756;9.246;2023-02-28T04:01:41;-1.50;99.90
55648;DHT22;45266;48.756;9.246;2023-02-28T04:02:44;-1.50;99.90
55648;DHT22;45266;48.756;9.246;2023-02-28T04:03:45;-1.50;99.90
55648;DHT22;45266;48.756;9.246;2023-02-28T04:04:47;-1.50;99.90
55648;DHT22;45266;48.756;9.246;2023-02-28T04:05:54;-1.50;99.90
55648;DHT22;45266;48.756;9.246;2023-02-28T04:07:07;-1.50;99.90
55648;DHT22;45266;48.756;9.246;2023-02-28T04:08:09;-1.50;99.90
55648;DHT22;45266;48.756;9.246;2023-02-28T04:09:14;-1.50;99.90
55648;DHT22;45266;48.756;9.246;2023-02-28T04:10:16;-1.60;99.90
55648;DHT22;45266;48.756;9.246;2023-02-28T04:11:30;-1.40;99.90
55648;DHT22;45266;48.756;9.246;2023-02-28T04:12:33;-1.40;99.90
55648;DHT22;45266;48.756;9.246;2023-02-28T04:13:36;-1.40;99.90
55648;DHT22;45266;48.756;9.246;2023-02-28T04:14:37;-1.40;99.90
55648;DHT22;45266;48.756;9.246;2023-02-28T04:15:39;-1.40;99.90
55648;DHT22;45266;48.756;9.246;2023-02-28T04:16:41;-1.40;99.90
55648;DHT22;45266;48.756;9.246;2023-02-28T04:17:43;-1.40;99.90
55648;DHT22;45266;48.756;9.246;2023-02-28T04:18:45;-1.30;99.90
55648;DHT22;45266;48.756;9.246;2023-02-28T04:19:47;-1.30;99.90
55648;DHT22;45266;48.756;9.246;2023-02-28T04:20:48;-1.30;99.90
55648;DHT22;45266;48.756;9.246;2023-02-28T04:21:52;-1.30;99.90
55648;DHT22;45266;48.756;9.246;2023-02-28T04:22:54;-1.30;99.90
55648;DHT22;45266;48.756;9.246;2023-02-28T04:23:56;-1.30;99.90
55648;DHT22;45266;48.756;9.246;2023-02-28T04:25:02;-1.30;99.90
55648;DHT22;45266;48.756;9.246;2023-02-28T04:26:04;-1.30;99.90
55648;DHT22;45266;48.756;9.246;2023-02-28T04:27:08;-1.30;99.90
55648;DHT22;45266;48.756;9.246;2023-02-28T04:28:10;-1.20;99.90
55648;DHT22;45266;48.756;9.246;2023-02-28T04:29:13;-1.30;99.90
55648;DHT22;45266;48.756;9.246;2023-02-28T04:30:16;-1.20;99.90
55648;DHT22;45266;48.756;9.246;2023-02-28T04:31:17;-1.20;99.90
55648;DHT22;45266;48.756;9.246;2023-02-28T04:32:19;-1.20;99.90
55648;DHT22;45266;48.756;9.246;2023-02-28T04:33:21;-1.20;99.90
55648;DHT22;45266;48.756;9.246;2023-02-28T04:34:23;-1.20;99.90
55648;DHT22;45266;48.756;9.246;2023-02-28T04:35:25;-1.20;99.90
55648;DHT22;45266;48.756;9.246;2023-02-28T04:36:28;-1.20;99.90
55648;DHT22;45266;48.756;9.246;2023-02-28T04:37:29;-1.20;99.90
55648;DHT22;45266;48.756;9.246;2023-02-28T04:38:36;-1.20;99.90
55648;DHT22;45266;48.756;9.246;2023-02-28T04:39:39;-1.10;99.90
55648;DHT22;45266;48.756;9.246;2023-02-28T04:40:41;-1.20;99.90
55648;DHT22;45266;48.756;9.246;2023-02-28T04:41:42;-1.20;99.90
55648;DHT22;45266;48.756;9.246;2023-02-28T04:42:44;-1.20;99.90
55648;DHT22;45266;48.756;9.246;2023-02-28T04:43:46;-1.20;99.90
55648;DHT22;45266;48.756;9.246;2023-02-28T04:44:48;-1.20;99.90
55648;DHT22;45266;48.756;9.246;2023-02-28T04:45:49;-1.20;99.90
55648;DHT22;45266;48.756;9.246;2023-02-28T04:46:51;-1.20;99.90
55648;DHT22;45266;48.756;9.246;2023-02-28T04:47:53;-1.20;99.90
55648;DHT22;45266;48.756;9.246;2023-02-28T04:48:55;-1.20;99.90
55648;DHT22;45266;48.756;9.246;2023-02-28T04:49:57;-1.20;99.90
55648;DHT22;45266;48.756;9.246;2023-02-28T04:51:10;-1.20;99.90
55648;DHT22;45266;48.756;9.246;2023-02-28T04:52:12;-1.20;99.90
55648;DHT22;45266;48.756;9.246;2023-02-28T04:53:14;-1.20;99.90
55648;DHT22;45266;48.756;9.246;2023-02-28T04:54:16;-1.20;99.90
55648;DHT22;45266;48.756;9.246;2023-02-28T04:55:19;-1.20;99.90
55648;DHT22;45266;48.756;9.246;2023-02-28T04:56:22;-1.10;99.90
55648;DHT22;45266;48.756;9.246;2023-02-28T04:57:23;-1.10;99.90
55648;DHT22;45266;48.756;9.246;2023-02-28T04:58:25;-1.10;99.90
55648;DHT22;45266;48.756;9.246;2023-02-28T04:59:27;-1.10;99.90
55648;DHT22;45266;48.756;9.246;2023-02-28T05:00:29;-1.10;99.90
55648;DHT22;45266;48.756;9.246;2023-02-28T05:01:33;-1.10;99.90
55648;DHT22;45266;48.756;9.246;2023-02-28T05:02:35;-1.10;99.90
55648;DHT22;45266;48.756;9.246;2023-02-28T05:03:37;-1.10;99.90
55648;DHT22;45266;48.756;9.246;2023-02-28T05:04:38;-1.10;99.90
55648;DHT22;45266;48.756;9.246;2023-02-28T05:05:40;-1.10;99.90
55648;DHT22;45266;48.756;9.246;2023-02-28T05:06:42;-1.10;99.90
55648;DHT22;45266;48.756;9.246;2023-02-28T05:07:45;-1.10;99.90
55648;DHT22;45266;48.756;9.246;2023-02-28T05:08:47;-1.10;99.90
55648;DHT22;45266;48.756;9.246;2023-02-28T05:09:48;-1.10;99.90
55648;DHT22;45266;48.756;9.246;2023-02-28T05:10:50;-1.10;99.90
55648;DHT22;45266;48.756;9.246;2023-02-28T05:11:52;-1.10;99.90
55648;DHT22;45266;48.756;9.246;2023-02-28T05:12:54;-1.00;99.90
55648;DHT22;45266;48.756;9.246;2023-02-28T05:13:56;-1.10;99.90
55648;DHT22;45266;48.756;9.246;2023-02-28T05:14:58;-1.10;99.90
55648;DHT22;45266;48.756;9.246;2023-02-28T05:15:59;-1.10;99.90
55648;DHT22;45266;48.756;9.246;2023-02-28T05:17:01;-1.10;99.90
55648;DHT22;45266;48.756;9.246;2023-02-28T05:18:04;-1.10;99.90
55648;DHT22;45266;48.756;9.246;2023-02-28T05:19:05;-1.10;99.90
55648;DHT22;45266;48.756;9.246;2023-02-28T05:20:08;-1.10;99.90
55648;DHT22;45266;48.756;9.246;2023-02-28T05:22:29;-1.00;99.90
55648;DHT22;45266;48.756;9.246;2023-02-28T05:23:31;-1.00;99.90
55648;DHT22;45266;48.756;9.246;2023-02-28T05:24:32;-1.00;99.90
55648;DHT22;45266;48.756;9.246;2023-02-28T05:25:34;-1.00;99.90
55648;DHT22;45266;48.756;9.246;2023-02-28T05:26:38;-1.00;99.90
55648;DHT22;45266;48.756;9.246;2023-02-28T05:27:40;-1.00;99.90
55648;DHT22;45266;48.756;9.246;2023-02-28T05:28:42;-1.00;99.90
55648;DHT22;45266;48.756;9.246;2023-02-28T05:29:43;-1.00;99.90
55648;DHT22;45266;48.756;9.246;2023-02-28T05:30:47;-1.00;99.90
55648;DHT22;45266;48.756;9.246;2023-02-28T05:31:48;-1.00;99.90
55648;DHT22;45266;48.756;9.246;2023-02-28T05:32:51;-1.00;99.90
55648;DHT22;45266;48.756;9.246;2023-02-28T05:33:53;-1.00;99.90
55648;DHT22;45266;48.756;9.246;2023-02-28T05:34:55;-1.00;99.90
55648;DHT22;45266;48.756;9.246;2023-02-28T05:35:56;-1.00;99.90
55648;DHT22;45266;48.756;9.246;2023-02-28T05:36:58;-1.00;99.90
55648;DHT22;45266;48.756;9.246;2023-02-28T05:38:00;-1.00;99.90
55648;DHT22;45266;48.756;9.246;2023-02-28T05:39:02;-1.00;99.90
55648;DHT22;45266;48.756;9.246;2023-02-28T05:40:05;-1.00;99.90
55648;DHT22;45266;48.756;9.246;2023-02-28T05:41:09;-1.00;99.90
55648;DHT22;45266;48.756;9.246;2023-02-28T05:42:11;-1.00;99.90
55648;DHT22;45266;48.756;9.246;2023-02-28T05:43:13;-1.00;99.90
55648;DHT22;45266;48.756;9.246;2023-02-28T05:44:15;-1.00;99.90
55648;DHT22;45266;48.756;9.246;2023-02-28T05:45:17;-1.00;99.90
55648;DHT22;45266;48.756;9.246;2023-02-28T05:46:19;-1.00;99.90
55648;DHT22;45266;48.756;9.246;2023-02-28T05:47:20;-1.00;99.90
55648;DHT22;45266;48.756;9.246;2023-02-28T05:48:22;-1.00;99.90
55648;DHT22;45266;48.756;9.246;2023-02-28T05:49:24;-1.00;99.90
55648;DHT22;45266;48.756;9.246;2023-02-28T05:50:26;-1.00;99.90
55648;DHT22;45266;48.756;9.246;2023-02-28T05:51:28;-0.90;99.90
55648;DHT22;45266;48.756;9.246;2023-02-28T05:52:30;-0.90;99.90
55648;DHT22;45266;48.756;9.246;2023-02-28T05:53:32;-1.00;99.90
55648;DHT22;45266;48.756;9.246;2023-02-28T05:54:34;-0.90;99.90
55648;DHT22;45266;48.756;9.246;2023-02-28T05:55:36;-1.00;99.90
55648;DHT22;45266;48.756;9.246;2023-02-28T05:56:39;-0.90;99.90
55648;DHT22;45266;48.756;9.246;2023-02-28T05:57:42;-0.90;99.90
55648;DHT22;45266;48.756;9.246;2023-02-28T05:58:44;-0.90;99.90
55648;DHT22;45266;48.756;9.246;2023-02-28T05:59:45;-0.90;99.90
55648;DHT22;45266;48.756;9.246;2023-02-28T06:00:47;-0.90;99.90
55648;DHT22;45266;48.756;9.246;2023-02-28T06:01:49;-0.90;99.90
55648;DHT22;45266;48.756;9.246;2023-02-28T06:02:51;-0.90;99.90
55648;DHT22;45266;48.756;9.246;2023-02-28T06:03:59;-0.90;99.90
55648;DHT22;45266;48.756;9.246;2023-02-28T06:05:01;-0.90;99.90
55648;DHT22;45266;48.756;9.246;2023-02-28T06:06:03;-0.80;99.90
55648;DHT22;45266;48.756;9.246;2023-02-28T06:07:05;-0.90;99.90
55648;DHT22;45266;48.756;9.246;2023-02-28T06:08:06;-0.90;99.90
55648;DHT22;45266;48.756;9.246;2023-02-28T06:09:08;-0.90;99.90
55648;DHT22;45266;48.756;9.246;2023-02-28T06:10:11;-0.90;99.90
55648;DHT22;45266;48.756;9.246;2023-02-28T06:11:13;-0.90;99.90
55648;DHT22;45266;48.756;9.246;2023-02-28T06:12:15;-0.90;99.90
55648;DHT22;45266;48.756;9.246;2023-02-28T06:13:17;-0.90;99.90
55648;DHT22;45266;48.756;9.246;2023-02-28T06:14:19;-0.90;99.90
55648;DHT22;45266;48.756;9.246;2023-02-28T06:15:21;-0.90;99.90
55648;DHT22;45266;48.756;9.246;2023-02-28T06:16:24;-0.80;99.90
55648;DHT22;45266;48.756;9.246;2023-02-28T06:17:26;-0.80;99.90
55648;DHT22;45266;48.756;9.246;2023-02-28T06:18:28;-0.80;99.90
55648;DHT22;45266;48.756;9.246;2023-02-28T06:19:30;-0.80;99.90
55648;DHT22;45266;48.756;9.246;2023-02-28T06:20:32;-0.80;99.90
55648;DHT22;45266;48.756;9.246;2023-02-28T06:21:33;-0.80;99.90
55648;DHT22;45266;48.756;9.246;2023-02-28T06:22:36;-0.80;99.90
55648;DHT22;45266;48.756;9.246;2023-02-28T06:23:38;-0.80;99.90
55648;DHT22;45266;48.756;9.246;2023-02-28T06:24:40;-0.80;99.90
55648;DHT22;45266;48.756;9.246;2023-02-28T06:25:45;-0.80;99.90
55648;DHT22;45266;48.756;9.246;2023-02-28T06:26:47;-0.80;99.90
55648;DHT22;45266;48.756;9.246;2023-02-28T06:27:48;-0.80;99.90
55648;DHT22;45266;48.756;9.246;2023-02-28T06:28:50;-0.80;99.90
55648;DHT22;45266;48.756;9.246;2023-02-28T06:29:55;-0.80;99.90
55648;DHT22;45266;48.756;9.246;2023-02-28T06:30:57;-0.80;99.90
55648;DHT22;45266;48.756;9.246;2023-02-28T06:31:59;-0.80;99.90
55648;DHT22;45266;48.756;9.246;2023-02-28T06:33:01;-0.80;99.90
55648;DHT22;45266;48.756;9.246;2023-02-28T06:34:03;-0.80;99.90
55648;DHT22;45266;48.756;9.246;2023-02-28T06:35:05;-0.70;99.90
55648;DHT22;45266;48.756;9.246;2023-02-28T06:36:07;-0.70;99.90
55648;DHT22;45266;48.756;9.246;2023-02-28T06:37:09;-0.70;99.90
55648;DHT22;45266;48.756;9.246;2023-02-28T06:38:12;-0.70;99.90
55648;DHT22;45266;48.756;9.246;2023-02-28T06:39:14;-0.70;99.90
55648;DHT22;45266;48.756;9.246;2023-02-28T06:40:16;-0.70;99.90
55648;DHT22;45266;48.756;9.246;2023-02-28T06:41:18;-0.70;99.90
55648;DHT22;45266;48.756;9.246;2023-02-28T06:42:20;-0.70;99.90
55648;DHT22;45266;48.756;9.246;2023-02-28T06:43:22;-0.70;99.90
55648;DHT22;45266;48.756;9.246;2023-02-28T06:44:24;-0.70;99.90
55648;DHT22;45266;48.756;9.246;2023-02-28T06:45:26;-0.70;99.90
55648;DHT22;45266;48.756;9.246;2023-02-28T06:46:28;-0.70;99.90
55648;DHT22;45266;48.756;9.246;2023-02-28T06:47:31;-0.70;99.90
55648;DHT22;45266;48.756;9.246;2023-02-28T06:48:33;-0.60;99.90
55648;DHT22;45266;48.756;9.246;2023-02-28T06:49:36;-0.60;99.90
55648;DHT22;45266;48.756;9.246;2023-02-28T06:50:38;-0.60;99.90
55648;DHT22;45266;48.756;9.246;2023-02-28T06:51:41;-0.60;99.90
55648;DHT22;45266;48.756;9.246;2023-02-28T06:52:46;-0.60;99.90
55648;DHT22;45266;48.756;9.246;2023-02-28T06:53:48;-0.60;99.90
55648;DHT22;45266;48.756;9.246;2023-02-28T06:54:50;-0.60;99.90
55648;DHT22;45266;48.756;9.246;2023-02-28T06:56:05;-0.60;99.90
55648;DHT22;45266;48.756;9.246;2023-02-28T06:57:08;-0.60;99.90
55648;DHT22;45266;48.756;9.246;2023-02-28T06:58:10;-0.60;99.90
55648;DHT22;45266;48.756;9.246;2023-02-28T06:59:20;-0.50;99.90
55648;DHT22;45266;48.756;9.246;2023-02-28T07:00:22;-0.50;99.90
55648;DHT22;45266;48.756;9.246;2023-02-28T07:01:24;-0.50;99.90
55648;DHT22;45266;48.756;9.246;2023-02-28T07:02:26;-0.50;99.90
55648;DHT22;45266;48.756;9.246;2023-02-28T07:03:29;-0.50;99.90
55648;DHT22;45266;48.756;9.246;2023-02-28T07:04:33;-0.50;99.90
55648;DHT22;45266;48.756;9.246;2023-02-28T07:05:36;-0.50;99.90
55648;DHT22;45266;48.756;9.246;2023-02-28T07:06:38;-0.50;99.90
55648;DHT22;45266;48.756;9.246;2023-02-28T07:07:40;-0.50;99.90
55648;DHT22;45266;48.756;9.246;2023-02-28T07:08:45;-0.50;99.90
55648;DHT22;45266;48.756;9.246;2023-02-28T07:09:47;-0.50;99.90
55648;DHT22;45266;48.756;9.246;2023-02-28T07:10:52;-0.50;99.90
55648;DHT22;45266;48.756;9.246;2023-02-28T07:11:53;-0.50;99.90
55648;DHT22;45266;48.756;9.246;2023-02-28T07:12:55;-0.50;99.90
55648;DHT22;45266;48.756;9.246;2023-02-28T07:13:57;-0.50;99.90
55648;DHT22;45266;48.756;9.246;2023-02-28T07:14:59;-0.50;99.90
55648;DHT22;45266;48.756;9.246;2023-02-28T07:16:04;-0.50;99.90
55648;DHT22;45266;48.756;9.246;2023-02-28T07:17:10;-0.50;99.90
55648;DHT22;45266;48.756;9.246;2023-02-28T07:18:13;-0.50;99.90
55648;DHT22;45266;48.756;9.246;2023-02-28T07:19:15;-0.40;99.90
55648;DHT22;45266;48.756;9.246;2023-02-28T07:20:17;-0.40;99.90
55648;DHT22;45266;48.756;9.246;2023-02-28T07:21:19;-0.40;99.90
55648;DHT22;45266;48.756;9.246;2023-02-28T07:22:21;-0.40;99.90